sensor_id;sensor_type;location;lat;lon;timestamp;P1;durP1;ratioP1;P2;durP2;ratioP2
8572;SDS011;4324;42.012;24.872;2022-09-03T00:01:25;7.63;;;6.80;;
8572;SDS011;4324;42.012;24.872;2022-09-03T00:04:07;7.53;;;6.67;;
8572;SDS011;4324;42.012;24.872;2022-09-03T00:06:42;6.93;;;6.40;;
8572;SDS011;4324;42.012;24.872;2022-09-03T00:09:16;8.47;;;6.83;;
8572;SDS011;4324;42.012;24.872;2022-09-03T00:11:50;6.73;;;6.20;;
8572;SDS011;4324;42.012;24.872;2022-09-03T00:14:24;7.30;;;6.60;;
8572;SDS011;4324;42.012;24.872;2022-09-03T00:16:58;7.50;;;6.77;;
8572;SDS011;4324;42.012;24.872;2022-09-03T00:19:30;7.60;;;6.50;;
8572;SDS011;4324;42.012;24.872;2022-09-03T00:22:02;9.97;;;6.10;;
8572;SDS011;4324;42.012;24.872;2022-09-03T00:24:35;7.20;;;6.50;;
8572;SDS011;4324;42.012;24.872;2022-09-03T00:27:07;6.90;;;6.30;;
8572;SDS011;4324;42.012;24.872;2022-09-03T00:29:42;7.70;;;6.87;;
8572;SDS011;4324;42.012;24.872;2022-09-03T00:32:16;7.50;;;6.70;;
8572;SDS011;4324;42.012;24.872;2022-09-03T00:34:48;7.63;;;6.77;;
8572;SDS011;4324;42.012;24.872;2022-09-03T00:37:19;6.20;;;5.60;;
8572;SDS011;4324;42.012;24.872;2022-09-03T00:39:46;7.17;;;6.47;;
8572;SDS011;4324;42.012;24.872;2022-09-03T00:42:20;7.30;;;6.13;;
8572;SDS011;4324;42.012;24.872;2022-09-03T00:45:09;7.70;;;6.20;;
8572;SDS011;4324;42.012;24.872;2022-09-03T00:47:54;8.67;;;5.97;;
8572;SDS011;4324;42.012;24.872;2022-09-03T00:50:36;7.53;;;6.67;;
8572;SDS011;4324;42.012;24.872;2022-09-03T00:53:20;7.40;;;6.60;;
8572;SDS011;4324;42.012;24.872;2022-09-03T00:56:00;7.03;;;6.37;;
8572;SDS011;4324;42.012;24.872;2022-09-03T00:58:49;6.37;;;5.77;;
8572;SDS011;4324;42.012;24.872;2022-09-03T01:01:27;6.43;;;5.93;;
8572;SDS011;4324;42.012;24.872;2022-09-03T01:04:00;7.00;;;6.27;;
8572;SDS011;4324;42.012;24.872;2022-09-03T01:06:44;7.77;;;6.60;;
8572;SDS011;4324;42.012;24.872;2022-09-03T01:09:23;6.70;;;6.10;;
8572;SDS011;4324;42.012;24.872;2022-09-03T01:12:05;7.20;;;6.53;;
8572;SDS011;4324;42.012;24.872;2022-09-03T01:14:44;8.57;;;6.40;;
8572;SDS011;4324;42.012;24.872;2022-09-03T01:17:21;7.40;;;6.70;;
8572;SDS011;4324;42.012;24.872;2022-09-03T01:20:09;9.93;;;7.63;;
8572;SDS011;4324;42.012;24.872;2022-09-03T01:26:05;8.83;;;6.57;;
8572;SDS011;4324;42.012;24.872;2022-09-03T01:28:51;7.87;;;6.87;;
8572;SDS011;4324;42.012;24.872;2022-09-03T01:31:27;7.33;;;6.67;;
8572;SDS011;4324;42.012;24.872;2022-09-03T01:34:00;8.07;;;7.27;;
8572;SDS011;4324;42.012;24.872;2022-09-03T01:36:37;7.07;;;6.40;;
8572;SDS011;4324;42.012;24.872;2022-09-03T01:39:15;7.50;;;6.80;;
8572;SDS011;4324;42.012;24.872;2022-09-03T01:41:52;7.47;;;6.57;;
8572;SDS011;4324;42.012;24.872;2022-09-03T01:44:46;6.97;;;6.27;;
8572;SDS011;4324;42.012;24.872;2022-09-03T01:47:45;6.80;;;6.10;;
8572;SDS011;4324;42.012;24.872;2022-09-03T01:50:25;12.80;;;6.50;;
8572;SDS011;4324;42.012;24.872;2022-09-03T01:53:02;7.80;;;6.47;;
8572;SDS011;4324;42.012;24.872;2022-09-03T01:55:38;9.27;;;7.00;;
8572;SDS011;4324;42.012;24.872;2022-09-03T01:58:21;10.87;;;6.57;;
8572;SDS011;4324;42.012;24.872;2022-09-03T02:00:59;12.37;;;6.60;;
8572;SDS011;4324;42.012;24.872;2022-09-03T02:03:32;7.13;;;6.27;;
8572;SDS011;4324;42.012;24.872;2022-09-03T02:06:04;6.93;;;6.10;;
8572;SDS011;4324;42.012;24.872;2022-09-03T02:08:33;7.50;;;6.67;;
8572;SDS011;4324;42.012;24.872;2022-09-03T02:11:00;6.67;;;5.73;;
8572;SDS011;4324;42.012;24.872;2022-09-03T02:13:28;6.87;;;6.20;;
8572;SDS011;4324;42.012;24.872;2022-09-03T02:15:59;7.10;;;6.40;;
8572;SDS011;4324;42.012;24.872;2022-09-03T02:18:28;6.67;;;6.17;;
8572;SDS011;4324;42.012;24.872;2022-09-03T02:20:59;8.93;;;6.10;;
8572;SDS011;4324;42.012;24.872;2022-09-03T02:23:26;7.03;;;6.43;;
8572;SDS011;4324;42.012;24.872;2022-09-03T02:25:54;7.07;;;6.37;;
8572;SDS011;4324;42.012;24.872;2022-09-03T02:28:24;10.63;;;6.73;;
8572;SDS011;4324;42.012;24.872;2022-09-03T02:30:53;8.23;;;6.03;;
8572;SDS011;4324;42.012;24.872;2022-09-03T02:33:22;6.73;;;6.03;;
8572;SDS011;4324;42.012;24.872;2022-09-03T02:35:49;7.87;;;6.57;;
8572;SDS011;4324;42.012;24.872;2022-09-03T02:38:17;13.30;;;6.63;;
8572;SDS011;4324;42.012;24.872;2022-09-03T02:40:45;7.87;;;6.10;;
8572;SDS011;4324;42.012;24.872;2022-09-03T02:43:13;7.07;;;5.77;;
8572;SDS011;4324;42.012;24.872;2022-09-03T02:45:44;7.07;;;6.37;;
8572;SDS011;4324;42.012;24.872;2022-09-03T02:48:14;7.37;;;6.43;;
8572;SDS011;4324;42.012;24.872;2022-09-03T02:50:47;6.97;;;6.30;;
8572;SDS011;4324;42.012;24.872;2022-09-03T02:53:14;7.27;;;6.67;;
8572;SDS011;4324;42.012;24.872;2022-09-03T02:55:41;9.40;;;6.20;;
8572;SDS011;4324;42.012;24.872;2022-09-03T02:58:09;8.70;;;6.40;;
8572;SDS011;4324;42.012;24.872;2022-09-03T03:00:36;8.00;;;5.83;;
8572;SDS011;4324;42.012;24.872;2022-09-03T03:03:03;7.20;;;6.37;;
8572;SDS011;4324;42.012;24.872;2022-09-03T03:05:34;6.63;;;6.03;;
8572;SDS011;4324;42.012;24.872;2022-09-03T03:08:10;6.90;;;6.30;;
8572;SDS011;4324;42.012;24.872;2022-09-03T03:10:39;7.23;;;6.03;;
8572;SDS011;4324;42.012;24.872;2022-09-03T03:13:06;7.20;;;6.47;;
8572;SDS011;4324;42.012;24.872;2022-09-03T03:15:33;7.80;;;6.33;;
8572;SDS011;4324;42.012;24.872;2022-09-03T03:18:00;8.20;;;6.50;;
8572;SDS011;4324;42.012;24.872;2022-09-03T03:20:27;7.33;;;6.60;;
8572;SDS011;4324;42.012;24.872;2022-09-03T03:22:54;8.80;;;6.70;;
8572;SDS011;4324;42.012;24.872;2022-09-03T03:25:23;7.97;;;6.70;;
8572;SDS011;4324;42.012;24.872;2022-09-03T03:27:50;7.37;;;6.73;;
8572;SDS011;4324;42.012;24.872;2022-09-03T03:30:16;7.80;;;6.40;;
8572;SDS011;4324;42.012;24.872;2022-09-03T03:32:45;7.03;;;6.43;;
8572;SDS011;4324;42.012;24.872;2022-09-03T03:35:12;7.33;;;6.73;;
8572;SDS011;4324;42.012;24.872;2022-09-03T03:37:38;7.20;;;6.70;;
8572;SDS011;4324;42.012;24.872;2022-09-03T03:40:06;9.10;;;6.40;;
8572;SDS011;4324;42.012;24.872;2022-09-03T03:42:35;9.10;;;6.53;;
8572;SDS011;4324;42.012;24.872;2022-09-03T03:45:02;8.17;;;6.63;;
8572;SDS011;4324;42.012;24.872;2022-09-03T03:47:29;8.53;;;6.57;;
8572;SDS011;4324;42.012;24.872;2022-09-03T03:49:56;11.13;;;6.80;;
8572;SDS011;4324;42.012;24.872;2022-09-03T03:52:23;8.90;;;6.33;;
8572;SDS011;4324;42.012;24.872;2022-09-03T03:54:50;7.80;;;7.10;;
8572;SDS011;4324;42.012;24.872;2022-09-03T03:57:18;8.50;;;6.63;;
8572;SDS011;4324;42.012;24.872;2022-09-03T03:59:47;7.33;;;6.60;;
8572;SDS011;4324;42.012;24.872;2022-09-03T04:02:15;7.40;;;6.70;;
8572;SDS011;4324;42.012;24.872;2022-09-03T04:04:43;7.53;;;6.50;;
8572;SDS011;4324;42.012;24.872;2022-09-03T04:07:10;6.90;;;6.30;;
8572;SDS011;4324;42.012;24.872;2022-09-03T04:09:36;9.17;;;6.30;;
8572;SDS011;4324;42.012;24.872;2022-09-03T04:12:03;8.20;;;7.50;;
8572;SDS011;4324;42.012;24.872;2022-09-03T04:14:33;11.37;;;10.13;;
8572;SDS011;4324;42.012;24.872;2022-09-03T04:17:04;9.47;;;7.23;;
8572;SDS011;4324;42.012;24.872;2022-09-03T04:19:31;6.87;;;6.27;;
8572;SDS011;4324;42.012;24.872;2022-09-03T04:21:58;7.03;;;6.17;;
8572;SDS011;4324;42.012;24.872;2022-09-03T04:24:25;8.37;;;6.70;;
8572;SDS011;4324;42.012;24.872;2022-09-03T04:26:52;7.43;;;6.53;;
8572;SDS011;4324;42.012;24.872;2022-09-03T04:29:19;7.53;;;5.97;;
8572;SDS011;4324;42.012;24.872;2022-09-03T04:31:47;6.97;;;6.37;;
8572;SDS011;4324;42.012;24.872;2022-09-03T04:34:29;8.43;;;6.23;;
8572;SDS011;4324;42.012;24.872;2022-09-03T04:36:57;10.10;;;6.40;;
8572;SDS011;4324;42.012;24.872;2022-09-03T04:39:24;9.60;;;6.30;;
8572;SDS011;4324;42.012;24.872;2022-09-03T04:41:51;7.40;;;6.70;;
8572;SDS011;4324;42.012;24.872;2022-09-03T04:44:18;7.83;;;6.73;;
8572;SDS011;4324;42.012;24.872;2022-09-03T04:46:45;8.10;;;7.10;;
8572;SDS011;4324;42.012;24.872;2022-09-03T04:49:12;10.47;;;7.77;;
8572;SDS011;4324;42.012;24.872;2022-09-03T04:51:41;6.60;;;5.97;;
8572;SDS011;4324;42.012;24.872;2022-09-03T04:54:08;7.03;;;6.00;;
8572;SDS011;4324;42.012;24.872;2022-09-03T04:56:37;6.57;;;5.93;;
8572;SDS011;4324;42.012;24.872;2022-09-03T04:59:07;6.77;;;6.07;;
8572;SDS011;4324;42.012;24.872;2022-09-03T05:01:35;6.33;;;5.73;;
8572;SDS011;4324;42.012;24.872;2022-09-03T05:04:03;11.60;;;8.37;;
8572;SDS011;4324;42.012;24.872;2022-09-03T05:06:32;8.63;;;7.73;;
8572;SDS011;4324;42.012;24.872;2022-09-03T05:09:01;9.43;;;7.40;;
8572;SDS011;4324;42.012;24.872;2022-09-03T05:11:29;8.30;;;6.67;;
8572;SDS011;4324;42.012;24.872;2022-09-03T05:13:57;8.23;;;7.40;;
8572;SDS011;4324;42.012;24.872;2022-09-03T05:16:25;10.83;;;7.57;;
8572;SDS011;4324;42.012;24.872;2022-09-03T05:18:55;7.10;;;6.40;;
8572;SDS011;4324;42.012;24.872;2022-09-03T05:21:25;8.87;;;6.93;;
8572;SDS011;4324;42.012;24.872;2022-09-03T05:23:53;7.53;;;6.83;;
8572;SDS011;4324;42.012;24.872;2022-09-03T05:26:25;10.83;;;6.90;;
8572;SDS011;4324;42.012;24.872;2022-09-03T05:28:55;10.83;;;6.60;;
8572;SDS011;4324;42.012;24.872;2022-09-03T05:31:24;10.20;;;6.90;;
8572;SDS011;4324;42.012;24.872;2022-09-03T05:33:52;7.20;;;6.43;;
8572;SDS011;4324;42.012;24.872;2022-09-03T05:36:23;7.13;;;6.47;;
8572;SDS011;4324;42.012;24.872;2022-09-03T05:38:57;7.70;;;6.70;;
8572;SDS011;4324;42.012;24.872;2022-09-03T05:41:26;7.60;;;6.97;;
8572;SDS011;4324;42.012;24.872;2022-09-03T05:43:54;6.77;;;6.17;;
8572;SDS011;4324;42.012;24.872;2022-09-03T05:46:23;7.17;;;6.47;;
8572;SDS011;4324;42.012;24.872;2022-09-03T05:48:56;10.97;;;6.87;;
8572;SDS011;4324;42.012;24.872;2022-09-03T05:51:23;8.07;;;6.30;;
8572;SDS011;4324;42.012;24.872;2022-09-03T05:53:50;6.90;;;6.20;;
8572;SDS011;4324;42.012;24.872;2022-09-03T05:56:20;10.40;;;6.40;;
8572;SDS011;4324;42.012;24.872;2022-09-03T05:58:50;6.93;;;6.33;;
8572;SDS011;4324;42.012;24.872;2022-09-03T06:01:19;7.90;;;6.37;;
8572;SDS011;4324;42.012;24.872;2022-09-03T06:03:47;6.67;;;5.97;;
8572;SDS011;4324;42.012;24.872;2022-09-03T06:06:22;8.50;;;6.83;;
8572;SDS011;4324;42.012;24.872;2022-09-03T06:08:51;6.93;;;6.03;;
8572;SDS011;4324;42.012;24.872;2022-09-03T06:11:19;8.37;;;6.10;;
8572;SDS011;4324;42.012;24.872;2022-09-03T06:13:53;9.87;;;6.80;;
8572;SDS011;4324;42.012;24.872;2022-09-03T06:16:21;11.90;;;7.10;;
8572;SDS011;4324;42.012;24.872;2022-09-03T06:18:48;9.30;;;8.40;;
8572;SDS011;4324;42.012;24.872;2022-09-03T06:21:21;10.53;;;8.57;;
8572;SDS011;4324;42.012;24.872;2022-09-03T06:24:00;13.73;;;6.93;;
8572;SDS011;4324;42.012;24.872;2022-09-03T06:26:29;10.67;;;9.73;;
8572;SDS011;4324;42.012;24.872;2022-09-03T06:29:02;11.87;;;8.30;;
8572;SDS011;4324;42.012;24.872;2022-09-03T06:31:29;8.07;;;7.20;;
8572;SDS011;4324;42.012;24.872;2022-09-03T06:34:00;7.90;;;6.77;;
8572;SDS011;4324;42.012;24.872;2022-09-03T06:36:31;9.73;;;8.40;;
8572;SDS011;4324;42.012;24.872;2022-09-03T06:38:58;13.37;;;7.43;;
8572;SDS011;4324;42.012;24.872;2022-09-03T06:41:26;8.30;;;7.40;;
8572;SDS011;4324;42.012;24.872;2022-09-03T06:43:56;8.60;;;7.23;;
8572;SDS011;4324;42.012;24.872;2022-09-03T06:46:29;11.97;;;10.40;;
8572;SDS011;4324;42.012;24.872;2022-09-03T06:48:56;10.23;;;8.60;;
8572;SDS011;4324;42.012;24.872;2022-09-03T06:51:24;8.67;;;7.37;;
8572;SDS011;4324;42.012;24.872;2022-09-03T06:53:57;8.87;;;8.07;;
8572;SDS011;4324;42.012;24.872;2022-09-03T06:56:26;8.17;;;7.37;;
8572;SDS011;4324;42.012;24.872;2022-09-03T06:58:55;8.23;;;7.63;;
8572;SDS011;4324;42.012;24.872;2022-09-03T07:01:24;11.90;;;10.80;;
8572;SDS011;4324;42.012;24.872;2022-09-03T07:03:57;12.30;;;8.57;;
8572;SDS011;4324;42.012;24.872;2022-09-03T07:06:29;10.73;;;9.50;;
8572;SDS011;4324;42.012;24.872;2022-09-03T07:08:58;11.83;;;10.73;;
8572;SDS011;4324;42.012;24.872;2022-09-03T07:11:26;11.20;;;10.17;;
8572;SDS011;4324;42.012;24.872;2022-09-03T07:13:56;11.20;;;10.30;;
8572;SDS011;4324;42.012;24.872;2022-09-03T07:16:24;11.90;;;10.90;;
8572;SDS011;4324;42.012;24.872;2022-09-03T07:18:53;13.37;;;12.27;;
8572;SDS011;4324;42.012;24.872;2022-09-03T07:21:23;15.07;;;11.77;;
8572;SDS011;4324;42.012;24.872;2022-09-03T07:23:52;12.80;;;10.97;;
8572;SDS011;4324;42.012;24.872;2022-09-03T07:26:20;10.53;;;9.60;;
8572;SDS011;4324;42.012;24.872;2022-09-03T07:28:49;12.07;;;10.13;;
8572;SDS011;4324;42.012;24.872;2022-09-03T07:31:19;11.50;;;10.50;;
8572;SDS011;4324;42.012;24.872;2022-09-03T07:33:51;12.30;;;11.17;;
8572;SDS011;4324;42.012;24.872;2022-09-03T07:36:22;11.90;;;10.90;;
8572;SDS011;4324;42.012;24.872;2022-09-03T07:38:50;12.40;;;11.40;;
8572;SDS011;4324;42.012;24.872;2022-09-03T07:41:20;12.00;;;10.90;;
8572;SDS011;4324;42.012;24.872;2022-09-03T07:43:49;10.87;;;10.00;;
8572;SDS011;4324;42.012;24.872;2022-09-03T07:46:17;11.17;;;10.27;;
8572;SDS011;4324;42.012;24.872;2022-09-03T07:48:47;12.17;;;11.13;;
8572;SDS011;4324;42.012;24.872;2022-09-03T07:51:17;11.10;;;10.07;;
8572;SDS011;4324;42.012;24.872;2022-09-03T07:53:47;11.43;;;10.43;;
8572;SDS011;4324;42.012;24.872;2022-09-03T07:56:14;11.17;;;10.07;;
8572;SDS011;4324;42.012;24.872;2022-09-03T07:58:42;13.80;;;12.27;;
8572;SDS011;4324;42.012;24.872;2022-09-03T08:01:09;13.23;;;11.20;;
8572;SDS011;4324;42.012;24.872;2022-09-03T08:03:38;13.70;;;10.30;;
8572;SDS011;4324;42.012;24.872;2022-09-03T08:06:08;11.20;;;10.30;;
8572;SDS011;4324;42.012;24.872;2022-09-03T08:08:36;11.30;;;10.20;;
8572;SDS011;4324;42.012;24.872;2022-09-03T08:11:06;11.67;;;10.60;;
8572;SDS011;4324;42.012;24.872;2022-09-03T08:13:35;12.63;;;11.43;;
8572;SDS011;4324;42.012;24.872;2022-09-03T08:16:05;11.60;;;10.60;;
8572;SDS011;4324;42.012;24.872;2022-09-03T08:18:32;11.17;;;10.27;;
8572;SDS011;4324;42.012;24.872;2022-09-03T08:21:03;13.67;;;11.43;;
8572;SDS011;4324;42.012;24.872;2022-09-03T08:23:36;13.37;;;10.50;;
8572;SDS011;4324;42.012;24.872;2022-09-03T08:26:03;13.10;;;11.03;;
8572;SDS011;4324;42.012;24.872;2022-09-03T08:28:36;12.37;;;11.27;;
8572;SDS011;4324;42.012;24.872;2022-09-03T08:31:16;12.57;;;11.37;;
8572;SDS011;4324;42.012;24.872;2022-09-03T08:33:44;10.90;;;10.00;;
8572;SDS011;4324;42.012;24.872;2022-09-03T08:36:46;10.80;;;9.87;;
8572;SDS011;4324;42.012;24.872;2022-09-03T08:39:13;10.30;;;9.30;;
8572;SDS011;4324;42.012;24.872;2022-09-03T08:41:46;11.30;;;10.40;;
8572;SDS011;4324;42.012;24.872;2022-09-03T08:44:27;10.17;;;9.37;;
8572;SDS011;4324;42.012;24.872;2022-09-03T08:46:57;12.20;;;11.17;;
8572;SDS011;4324;42.012;24.872;2022-09-03T08:49:32;11.63;;;10.57;;
8572;SDS011;4324;42.012;24.872;2022-09-03T08:52:05;10.80;;;9.73;;
8572;SDS011;4324;42.012;24.872;2022-09-03T08:54:37;10.40;;;9.53;;
8572;SDS011;4324;42.012;24.872;2022-09-03T08:57:05;10.63;;;9.73;;
8572;SDS011;4324;42.012;24.872;2022-09-03T08:59:34;10.30;;;9.50;;
8572;SDS011;4324;42.012;24.872;2022-09-03T09:02:03;11.03;;;10.07;;
8572;SDS011;4324;42.012;24.872;2022-09-03T09:04:52;10.47;;;9.57;;
8572;SDS011;4324;42.012;24.872;2022-09-03T09:07:26;11.23;;;10.30;;
8572;SDS011;4324;42.012;24.872;2022-09-03T09:09:59;9.57;;;8.77;;
8572;SDS011;4324;42.012;24.872;2022-09-03T09:12:34;10.47;;;9.47;;
8572;SDS011;4324;42.012;24.872;2022-09-03T09:15:11;11.90;;;10.80;;
8572;SDS011;4324;42.012;24.872;2022-09-03T09:17:58;11.00;;;10.00;;
8572;SDS011;4324;42.012;24.872;2022-09-03T09:20:32;9.70;;;9.00;;
8572;SDS011;4324;42.012;24.872;2022-09-03T09:23:06;11.03;;;9.93;;
8572;SDS011;4324;42.012;24.872;2022-09-03T09:25:38;10.63;;;9.73;;
8572;SDS011;4324;42.012;24.872;2022-09-03T09:28:15;14.43;;;11.53;;
8572;SDS011;4324;42.012;24.872;2022-09-03T09:30:44;10.43;;;9.63;;
8572;SDS011;4324;42.012;24.872;2022-09-03T09:33:12;9.57;;;8.87;;
8572;SDS011;4324;42.012;24.872;2022-09-03T09:35:40;10.07;;;9.20;;
8572;SDS011;4324;42.012;24.872;2022-09-03T09:38:07;10.37;;;9.40;;
8572;SDS011;4324;42.012;24.872;2022-09-03T09:40:35;11.13;;;10.23;;
8572;SDS011;4324;42.012;24.872;2022-09-03T09:43:04;10.33;;;9.43;;
8572;SDS011;4324;42.012;24.872;2022-09-03T09:45:33;9.97;;;9.10;;
8572;SDS011;4324;42.012;24.872;2022-09-03T09:48:01;10.23;;;9.20;;
8572;SDS011;4324;42.012;24.872;2022-09-03T09:50:35;10.93;;;10.03;;
8572;SDS011;4324;42.012;24.872;2022-09-03T09:53:06;9.60;;;8.67;;
8572;SDS011;4324;42.012;24.872;2022-09-03T09:55:53;9.60;;;8.77;;
8572;SDS011;4324;42.012;24.872;2022-09-03T09:58:22;9.80;;;8.90;;
8572;SDS011;4324;42.012;24.872;2022-09-03T10:00:57;10.07;;;9.23;;
8572;SDS011;4324;42.012;24.872;2022-09-03T10:03:28;12.07;;;10.97;;
8572;SDS011;4324;42.012;24.872;2022-09-03T10:06:08;10.70;;;9.70;;
8572;SDS011;4324;42.012;24.872;2022-09-03T10:09:04;10.43;;;9.53;;
8572;SDS011;4324;42.012;24.872;2022-09-03T10:11:33;10.73;;;9.80;;
8572;SDS011;4324;42.012;24.872;2022-09-03T10:14:04;10.40;;;9.50;;
8572;SDS011;4324;42.012;24.872;2022-09-03T10:16:38;9.77;;;8.87;;
8572;SDS011;4324;42.012;24.872;2022-09-03T10:19:15;13.63;;;11.43;;
8572;SDS011;4324;42.012;24.872;2022-09-03T10:21:44;10.27;;;9.40;;
8572;SDS011;4324;42.012;24.872;2022-09-03T10:24:32;10.37;;;9.47;;
8572;SDS011;4324;42.012;24.872;2022-09-03T10:27:05;10.07;;;9.23;;
8572;SDS011;4324;42.012;24.872;2022-09-03T10:29:37;10.43;;;9.43;;
8572;SDS011;4324;42.012;24.872;2022-09-03T10:32:12;9.87;;;9.07;;
8572;SDS011;4324;42.012;24.872;2022-09-03T10:34:48;9.73;;;9.00;;
8572;SDS011;4324;42.012;24.872;2022-09-03T10:37:25;9.53;;;8.73;;
8572;SDS011;4324;42.012;24.872;2022-09-03T10:40:04;9.73;;;8.73;;
8572;SDS011;4324;42.012;24.872;2022-09-03T10:42:53;10.00;;;9.10;;
8572;SDS011;4324;42.012;24.872;2022-09-03T10:45:36;8.97;;;8.17;;
8572;SDS011;4324;42.012;24.872;2022-09-03T10:51:12;9.73;;;8.93;;
8572;SDS011;4324;42.012;24.872;2022-09-03T10:53:52;10.43;;;9.53;;
8572;SDS011;4324;42.012;24.872;2022-09-03T10:56:29;9.90;;;9.07;;
8572;SDS011;4324;42.012;24.872;2022-09-03T10:59:05;10.13;;;9.33;;
8572;SDS011;4324;42.012;24.872;2022-09-03T11:01:51;10.10;;;9.20;;
8572;SDS011;4324;42.012;24.872;2022-09-03T11:04:29;9.63;;;8.83;;
8572;SDS011;4324;42.012;24.872;2022-09-03T11:07:04;9.13;;;8.33;;
8572;SDS011;4324;42.012;24.872;2022-09-03T11:09:34;11.67;;;10.53;;
8572;SDS011;4324;42.012;24.872;2022-09-03T11:12:05;8.90;;;8.10;;
8572;SDS011;4324;42.012;24.872;2022-09-03T11:14:38;9.93;;;9.07;;
8572;SDS011;4324;42.012;24.872;2022-09-03T11:17:40;9.30;;;8.37;;
8572;SDS011;4324;42.012;24.872;2022-09-03T11:20:15;9.90;;;9.10;;
8572;SDS011;4324;42.012;24.872;2022-09-03T11:22:45;10.07;;;9.10;;
8572;SDS011;4324;42.012;24.872;2022-09-03T11:25:15;9.67;;;8.77;;
8572;SDS011;4324;42.012;24.872;2022-09-03T11:27:49;9.07;;;8.27;;
8572;SDS011;4324;42.012;24.872;2022-09-03T11:30:23;9.97;;;8.47;;
8572;SDS011;4324;42.012;24.872;2022-09-03T11:32:55;9.17;;;8.37;;
8572;SDS011;4324;42.012;24.872;2022-09-03T11:35:37;9.53;;;8.73;;
8572;SDS011;4324;42.012;24.872;2022-09-03T11:38:17;9.07;;;8.33;;
8572;SDS011;4324;42.012;24.872;2022-09-03T11:40:59;10.87;;;9.83;;
8572;SDS011;4324;42.012;24.872;2022-09-03T11:43:29;9.10;;;8.20;;
8572;SDS011;4324;42.012;24.872;2022-09-03T11:46:04;9.23;;;8.50;;
8572;SDS011;4324;42.012;24.872;2022-09-03T11:48:39;10.47;;;9.57;;
8572;SDS011;4324;42.012;24.872;2022-09-03T11:51:20;10.07;;;8.93;;
8572;SDS011;4324;42.012;24.872;2022-09-03T11:53:57;9.40;;;8.43;;
8572;SDS011;4324;42.012;24.872;2022-09-03T11:56:25;10.00;;;9.10;;
8572;SDS011;4324;42.012;24.872;2022-09-03T11:59:00;9.77;;;8.93;;
8572;SDS011;4324;42.012;24.872;2022-09-03T12:01:31;9.83;;;9.03;;
8572;SDS011;4324;42.012;24.872;2022-09-03T12:04:01;10.13;;;9.33;;
8572;SDS011;4324;42.012;24.872;2022-09-03T12:06:41;9.90;;;9.10;;
8572;SDS011;4324;42.012;24.872;2022-09-03T12:12:25;9.17;;;8.37;;
8572;SDS011;4324;42.012;24.872;2022-09-03T12:15:06;9.63;;;8.73;;
8572;SDS011;4324;42.012;24.872;2022-09-03T12:17:44;9.13;;;8.43;;
8572;SDS011;4324;42.012;24.872;2022-09-03T12:20:37;9.17;;;8.37;;
8572;SDS011;4324;42.012;24.872;2022-09-03T12:23:06;9.50;;;8.70;;
8572;SDS011;4324;42.012;24.872;2022-09-03T12:25:41;9.40;;;8.60;;
8572;SDS011;4324;42.012;24.872;2022-09-03T12:28:11;8.40;;;7.70;;
8572;SDS011;4324;42.012;24.872;2022-09-03T12:30:43;16.10;;;12.37;;
8572;SDS011;4324;42.012;24.872;2022-09-03T12:33:16;8.70;;;7.90;;
8572;SDS011;4324;42.012;24.872;2022-09-03T12:35:53;8.67;;;7.83;;
8572;SDS011;4324;42.012;24.872;2022-09-03T12:38:23;8.93;;;8.10;;
8572;SDS011;4324;42.012;24.872;2022-09-03T12:40:51;8.13;;;7.53;;
8572;SDS011;4324;42.012;24.872;2022-09-03T12:43:19;8.73;;;8.03;;
8572;SDS011;4324;42.012;24.872;2022-09-03T12:45:47;8.60;;;7.70;;
8572;SDS011;4324;42.012;24.872;2022-09-03T12:48:15;10.23;;;9.00;;
8572;SDS011;4324;42.012;24.872;2022-09-03T12:50:45;7.77;;;7.17;;
8572;SDS011;4324;42.012;24.872;2022-09-03T12:53:14;7.77;;;7.10;;
8572;SDS011;4324;42.012;24.872;2022-09-03T12:55:49;6.53;;;6.03;;
8572;SDS011;4324;42.012;24.872;2022-09-03T12:58:20;8.23;;;7.47;;
8572;SDS011;4324;42.012;24.872;2022-09-03T13:00:50;6.27;;;5.67;;
8572;SDS011;4324;42.012;24.872;2022-09-03T13:03:23;7.10;;;6.57;;
8572;SDS011;4324;42.012;24.872;2022-09-03T13:05:56;7.07;;;6.47;;
8572;SDS011;4324;42.012;24.872;2022-09-03T13:08:32;6.47;;;5.97;;
8572;SDS011;4324;42.012;24.872;2022-09-03T13:11:14;6.10;;;5.70;;
8572;SDS011;4324;42.012;24.872;2022-09-03T13:13:49;6.43;;;5.93;;
8572;SDS011;4324;42.012;24.872;2022-09-03T13:16:42;6.33;;;5.73;;
8572;SDS011;4324;42.012;24.872;2022-09-03T13:19:21;7.50;;;6.80;;
8572;SDS011;4324;42.012;24.872;2022-09-03T13:22:01;7.40;;;6.70;;
8572;SDS011;4324;42.012;24.872;2022-09-03T13:27:30;6.40;;;5.80;;
8572;SDS011;4324;42.012;24.872;2022-09-03T13:30:04;5.60;;;5.10;;
8572;SDS011;4324;42.012;24.872;2022-09-03T13:32:36;7.33;;;6.63;;
8572;SDS011;4324;42.012;24.872;2022-09-03T13:35:11;5.90;;;5.33;;
8572;SDS011;4324;42.012;24.872;2022-09-03T13:37:44;5.03;;;4.63;;
8572;SDS011;4324;42.012;24.872;2022-09-03T13:40:18;5.77;;;5.23;;
8572;SDS011;4324;42.012;24.872;2022-09-03T13:42:54;5.27;;;4.70;;
8572;SDS011;4324;42.012;24.872;2022-09-03T13:45:30;5.70;;;5.20;;
8572;SDS011;4324;42.012;24.872;2022-09-03T13:48:06;5.97;;;5.20;;
8572;SDS011;4324;42.012;24.872;2022-09-03T13:50:58;5.80;;;5.30;;
8572;SDS011;4324;42.012;24.872;2022-09-03T13:53:36;7.87;;;6.53;;
8572;SDS011;4324;42.012;24.872;2022-09-03T13:56:31;5.17;;;4.70;;
8572;SDS011;4324;42.012;24.872;2022-09-03T13:59:26;5.27;;;4.83;;
8572;SDS011;4324;42.012;24.872;2022-09-03T14:02:04;4.90;;;4.33;;
8572;SDS011;4324;42.012;24.872;2022-09-03T14:04:48;5.03;;;3.93;;
8572;SDS011;4324;42.012;24.872;2022-09-03T14:07:24;6.07;;;5.00;;
8572;SDS011;4324;42.012;24.872;2022-09-03T14:10:10;5.60;;;4.07;;
8572;SDS011;4324;42.012;24.872;2022-09-03T14:12:48;4.87;;;4.20;;
8572;SDS011;4324;42.012;24.872;2022-09-03T14:15:23;4.20;;;3.90;;
8572;SDS011;4324;42.012;24.872;2022-09-03T14:17:55;5.67;;;5.20;;
8572;SDS011;4324;42.012;24.872;2022-09-03T14:20:28;3.93;;;3.63;;
8572;SDS011;4324;42.012;24.872;2022-09-03T14:23:01;4.27;;;3.93;;
8572;SDS011;4324;42.012;24.872;2022-09-03T14:25:30;4.43;;;4.13;;
8572;SDS011;4324;42.012;24.872;2022-09-03T14:28:11;4.57;;;3.80;;
8572;SDS011;4324;42.012;24.872;2022-09-03T14:30:42;4.87;;;4.47;;
8572;SDS011;4324;42.012;24.872;2022-09-03T14:33:18;4.20;;;3.83;;
8572;SDS011;4324;42.012;24.872;2022-09-03T14:35:58;4.37;;;3.97;;
8572;SDS011;4324;42.012;24.872;2022-09-03T14:38:41;4.27;;;3.63;;
8572;SDS011;4324;42.012;24.872;2022-09-03T14:41:35;4.97;;;4.57;;
8572;SDS011;4324;42.012;24.872;2022-09-03T14:44:37;6.43;;;4.93;;
8572;SDS011;4324;42.012;24.872;2022-09-03T14:47:28;3.53;;;3.30;;
8572;SDS011;4324;42.012;24.872;2022-09-03T14:50:08;3.93;;;3.60;;
8572;SDS011;4324;42.012;24.872;2022-09-03T14:52:51;4.40;;;3.50;;
8572;SDS011;4324;42.012;24.872;2022-09-03T14:55:44;2.90;;;2.70;;
8572;SDS011;4324;42.012;24.872;2022-09-03T14:58:34;2.00;;;1.90;;
8572;SDS011;4324;42.012;24.872;2022-09-03T15:01:10;2.20;;;2.00;;
8572;SDS011;4324;42.012;24.872;2022-09-03T15:06:40;2.43;;;1.60;;
8572;SDS011;4324;42.012;24.872;2022-09-03T15:09:21;2.00;;;1.80;;
8572;SDS011;4324;42.012;24.872;2022-09-03T15:11:55;1.90;;;1.80;;
8572;SDS011;4324;42.012;24.872;2022-09-03T15:14:26;2.60;;;2.40;;
8572;SDS011;4324;42.012;24.872;2022-09-03T15:17:00;2.77;;;2.57;;
8572;SDS011;4324;42.012;24.872;2022-09-03T15:19:50;3.43;;;3.23;;
8572;SDS011;4324;42.012;24.872;2022-09-03T15:22:33;2.67;;;2.43;;
8572;SDS011;4324;42.012;24.872;2022-09-03T15:25:14;2.87;;;2.60;;
8572;SDS011;4324;42.012;24.872;2022-09-03T15:27:51;3.80;;;3.20;;
8572;SDS011;4324;42.012;24.872;2022-09-03T15:30:32;3.33;;;3.03;;
8572;SDS011;4324;42.012;24.872;2022-09-03T15:33:05;3.20;;;2.90;;
8572;SDS011;4324;42.012;24.872;2022-09-03T15:35:48;3.60;;;3.30;;
8572;SDS011;4324;42.012;24.872;2022-09-03T15:38:27;3.37;;;3.07;;
8572;SDS011;4324;42.012;24.872;2022-09-03T15:41:06;4.60;;;3.77;;
8572;SDS011;4324;42.012;24.872;2022-09-03T15:43:38;4.10;;;3.80;;
8572;SDS011;4324;42.012;24.872;2022-09-03T15:46:08;3.73;;;3.43;;
8572;SDS011;4324;42.012;24.872;2022-09-03T15:48:44;4.00;;;3.70;;